sensor_id;sensor_type;location;lat;lon;timestamp;pressure;altitude;pressure_sealevel;temperature;humidity
66524;BME280;53350;52.210;5.160;2023-03-15T00:02:09;101200.84;;;5.37;73.76
66524;BME280;53350;52.210;5.160;2023-03-15T00:04:35;101195.72;;;5.37;73.41
66524;BME280;53350;52.210;5.160;2023-03-15T00:07:03;101190.63;;;5.37;72.36
66524;BME280;53350;52.210;5.160;2023-03-15T00:09:29;101202.56;;;5.38;74.18
66524;BME280;53350;52.210;5.160;2023-03-15T00:11:56;101208.53;;;5.40;73.76
66524;BME280;53350;52.210;5.160;2023-03-15T00:14:22;101212.00;;;5.42;73.35
66524;BME280;53350;52.210;5.160;2023-03-15T00:16:49;101223.09;;;5.44;74.11
66524;BME280;53350;52.210;5.160;2023-03-15T00:19:15;101220.56;;;5.47;73.54
66524;BME280;53350;52.210;5.160;2023-03-15T00:21:42;101220.59;;;5.50;73.54
66524;BME280;53350;52.210;5.160;2023-03-15T00:24:10;101211.31;;;5.54;73.86
66524;BME280;53350;52.210;5.160;2023-03-15T00:26:36;101216.47;;;5.58;72.95
66524;BME280;53350;52.210;5.160;2023-03-15T00:29:03;101219.91;;;5.59;73.05
66524;BME280;53350;52.210;5.160;2023-03-15T00:31:29;101224.13;;;5.58;73.31
66524;BME280;53350;52.210;5.160;2023-03-15T00:33:56;101217.41;;;5.62;73.92
66524;BME280;53350;52.210;5.160;2023-03-15T00:36:23;101223.41;;;5.66;73.36
66524;BME280;53350;52.210;5.160;2023-03-15T00:38:51;101220.00;;;5.67;73.42
66524;BME280;53350;52.210;5.160;2023-03-15T00:41:20;101224.28;;;5.68;73.11
66524;BME280;53350;52.210;5.160;2023-03-15T00:43:47;101223.44;;;5.69;73.36
66524;BME280;53350;52.210;5.160;2023-03-15T00:46:14;101218.34;;;5.72;73.54
66524;BME280;53350;52.210;5.160;2023-03-15T00:48:41;101223.53;;;5.75;73.24
66524;BME280;53350;52.210;5.160;2023-03-15T00:51:09;101229.53;;;5.77;72.87
66524;BME280;53350;52.210;5.160;2023-03-15T00:53:38;101233.78;;;5.77;72.40
66524;BME280;53350;52.210;5.160;2023-03-15T00:56:06;101234.63;;;5.75;72.45
66524;BME280;53350;52.210;5.160;2023-03-15T00:58:34;101247.41;;;5.75;71.64
66524;BME280;53350;52.210;5.160;2023-03-15T01:01:04;101248.25;;;5.78;72.43
66524;BME280;53350;52.210;5.160;2023-03-15T01:03:31;101255.09;;;5.79;72.58
66524;BME280;53350;52.210;5.160;2023-03-15T01:05:57;101253.41;;;5.81;72.33
66524;BME280;53350;52.210;5.160;2023-03-15T01:08:24;101255.13;;;5.82;72.31
66524;BME280;53350;52.210;5.160;2023-03-15T01:10:50;101261.97;;;5.81;72.36
66524;BME280;53350;52.210;5.160;2023-03-15T01:13:17;101261.94;;;5.80;72.29
66524;BME280;53350;52.210;5.160;2023-03-15T01:15:45;101262.75;;;5.77;72.41
66524;BME280;53350;52.210;5.160;2023-03-15T01:18:12;101265.28;;;5.75;72.57
66524;BME280;53350;52.210;5.160;2023-03-15T01:20:42;101261.88;;;5.75;72.81
66524;BME280;53350;52.210;5.160;2023-03-15T01:23:09;101269.56;;;5.75;72.66
66524;BME280;53350;52.210;5.160;2023-03-15T01:25:35;101274.69;;;5.77;72.83
66524;BME280;53350;52.210;5.160;2023-03-15T01:28:01;101267.00;;;5.77;72.55
66524;BME280;53350;52.210;5.160;2023-03-15T01:30:28;101281.47;;;5.76;72.24
66524;BME280;53350;52.210;5.160;2023-03-15T01:32:56;101278.91;;;5.74;72.49
66524;BME280;53350;52.210;5.160;2023-03-15T01:35:22;101275.44;;;5.71;72.47
66524;BME280;53350;52.210;5.160;2023-03-15T01:37:48;101283.94;;;5.70;72.76
66524;BME280;53350;52.210;5.160;2023-03-15T01:40:15;101285.69;;;5.71;72.39
66524;BME280;53350;52.210;5.160;2023-03-15T01:42:52;101295.00;;;5.70;72.41
66524;BME280;53350;52.210;5.160;2023-03-15T01:45:50;101288.25;;;5.72;72.67
66524;BME280;53350;52.210;5.160;2023-03-15T01:48:21;101305.34;;;5.75;72.32
66524;BME280;53350;52.210;5.160;2023-03-15T01:50:48;101302.78;;;5.75;72.17
66524;BME280;53350;52.210;5.160;2023-03-15T01:53:15;101307.84;;;5.73;72.54
66524;BME280;53350;52.210;5.160;2023-03-15T01:55:42;101297.59;;;5.72;72.94
66524;BME280;53350;52.210;5.160;2023-03-15T01:58:09;101301.06;;;5.74;72.78
66524;BME280;53350;52.210;5.160;2023-03-15T02:00:36;101306.16;;;5.74;72.60
66524;BME280;53350;52.210;5.160;2023-03-15T02:03:05;101302.69;;;5.72;72.94
66524;BME280;53350;52.210;5.160;2023-03-15T02:05:38;101312.13;;;5.74;72.79
66524;BME280;53350;52.210;5.160;2023-03-15T02:08:10;101310.44;;;5.75;73.19
66524;BME280;53350;52.210;5.160;2023-03-15T02:10:41;101313.84;;;5.74;72.23
66524;BME280;53350;52.210;5.160;2023-03-15T02:13:10;101314.69;;;5.74;72.82
66524;BME280;53350;52.210;5.160;2023-03-15T02:15:38;101319.69;;;5.67;71.73
66524;BME280;53350;52.210;5.160;2023-03-15T02:18:11;101324.72;;;5.61;73.14
66524;BME280;53350;52.210;5.160;2023-03-15T02:20:44;101315.25;;;5.56;72.73
66524;BME280;53350;52.210;5.160;2023-03-15T02:23:16;101325.53;;;5.60;73.13
66524;BME280;53350;52.210;5.160;2023-03-15T02:25:48;101334.91;;;5.59;72.67
66524;BME280;53350;52.210;5.160;2023-03-15T02:28:22;101341.69;;;5.58;72.55
66524;BME280;53350;52.210;5.160;2023-03-15T02:30:49;101338.28;;;5.58;72.87
66524;BME280;53350;52.210;5.160;2023-03-15T02:33:20;101333.09;;;5.52;72.96
66524;BME280;53350;52.210;5.160;2023-03-15T02:35:47;101346.84;;;5.62;72.89
66524;BME280;53350;52.210;5.160;2023-03-15T02:38:15;101353.69;;;5.63;73.04
66524;BME280;53350;52.210;5.160;2023-03-15T02:40:43;101340.78;;;5.53;73.00
66524;BME280;53350;52.210;5.160;2023-03-15T02:43:13;101352.78;;;5.59;73.06
66524;BME280;53350;52.210;5.160;2023-03-15T02:45:43;101349.41;;;5.62;73.22
66524;BME280;53350;52.210;5.160;2023-03-15T02:48:10;101353.72;;;5.64;73.52
66524;BME280;53350;52.210;5.160;2023-03-15T02:50:37;101356.25;;;5.64;72.64
66524;BME280;53350;52.210;5.160;2023-03-15T02:53:04;101363.91;;;5.63;72.67
66524;BME280;53350;52.210;5.160;2023-03-15T02:55:30;101374.97;;;5.62;73.07
66524;BME280;53350;52.210;5.160;2023-03-15T02:57:57;101372.41;;;5.62;72.68
66524;BME280;53350;52.210;5.160;2023-03-15T03:00:25;101376.63;;;5.60;72.60
66524;BME280;53350;52.210;5.160;2023-03-15T03:02:53;101381.75;;;5.60;72.50
66524;BME280;53350;52.210;5.160;2023-03-15T03:05:20;101392.81;;;5.58;72.53
66524;BME280;53350;52.210;5.160;2023-03-15T03:07:46;101397.88;;;5.55;72.52
66524;BME280;53350;52.210;5.160;2023-03-15T03:10:15;101395.28;;;5.54;71.89
66524;BME280;53350;52.210;5.160;2023-03-15T03:12:42;101402.91;;;5.52;71.96
66524;BME280;53350;52.210;5.160;2023-03-15T03:15:09;101407.97;;;5.49;71.83
66524;BME280;53350;52.210;5.160;2023-03-15T03:17:36;101414.72;;;5.46;71.91
66524;BME280;53350;52.210;5.160;2023-03-15T03:20:05;101414.63;;;5.41;71.65
66524;BME280;53350;52.210;5.160;2023-03-15T03:22:33;101424.84;;;5.39;71.94
66524;BME280;53350;52.210;5.160;2023-03-15T03:25:00;101423.09;;;5.38;71.79
66524;BME280;53350;52.210;5.160;2023-03-15T03:27:27;101435.00;;;5.36;72.10
66524;BME280;53350;52.210;5.160;2023-03-15T03:29:54;101429.03;;;5.36;71.82
66524;BME280;53350;52.210;5.160;2023-03-15T03:32:20;101435.78;;;5.34;71.57
66524;BME280;53350;52.210;5.160;2023-03-15T03:34:47;101440.88;;;5.32;71.49
66524;BME280;53350;52.210;5.160;2023-03-15T03:37:15;101448.50;;;5.29;71.70
66524;BME280;53350;52.210;5.160;2023-03-15T03:39:42;101445.09;;;5.29;70.75
66524;BME280;53350;52.210;5.160;2023-03-15T03:42:08;101454.38;;;5.27;71.34
66524;BME280;53350;52.210;5.160;2023-03-15T03:44:35;101458.59;;;5.23;71.59
66524;BME280;53350;52.210;5.160;2023-03-15T03:47:01;101457.69;;;5.21;71.36
66524;BME280;53350;52.210;5.160;2023-03-15T03:49:28;101468.75;;;5.20;71.60
66524;BME280;53350;52.210;5.160;2023-03-15T03:51:54;101472.09;;;5.17;71.22
66524;BME280;53350;52.210;5.160;2023-03-15T03:54:22;101473.72;;;5.14;71.14
66524;BME280;53350;52.210;5.160;2023-03-15T03:56:49;101470.25;;;5.10;71.14
66524;BME280;53350;52.210;5.160;2023-03-15T03:59:15;101470.13;;;5.04;71.11
66524;BME280;53350;52.210;5.160;2023-03-15T04:01:41;101476.06;;;5.03;71.41
66524;BME280;53350;52.210;5.160;2023-03-15T04:04:08;101482.03;;;5.03;71.50
66524;BME280;53350;52.210;5.160;2023-03-15T04:06:38;101487.09;;;5.02;71.17
66524;BME280;53350;52.210;5.160;2023-03-15T04:09:10;101487.06;;;5.00;71.28
66524;BME280;53350;52.210;5.160;2023-03-15T04:11:38;101493.00;;;4.99;71.34
66524;BME280;53350;52.210;5.160;2023-03-15T04:14:06;101494.69;;;4.99;71.48
66524;BME280;53350;52.210;5.160;2023-03-15T04:16:33;101502.34;;;4.99;71.16
66524;BME280;53350;52.210;5.160;2023-03-15T04:18:59;101507.44;;;4.97;71.01
66524;BME280;53350;52.210;5.160;2023-03-15T04:21:26;101505.69;;;4.96;71.11
66524;BME280;53350;52.210;5.160;2023-03-15T04:23:56;101512.50;;;4.96;71.60
66524;BME280;53350;52.210;5.160;2023-03-15T04:26:22;101510.81;;;4.96;71.21
66524;BME280;53350;52.210;5.160;2023-03-15T04:28:52;101521.84;;;4.95;71.15
66524;BME280;53350;52.210;5.160;2023-03-15T04:31:18;101518.41;;;4.93;71.33
66524;BME280;53350;52.210;5.160;2023-03-15T04:33:45;101530.31;;;4.93;71.49
66524;BME280;53350;52.210;5.160;2023-03-15T04:36:11;101520.06;;;4.91;71.52
66524;BME280;53350;52.210;5.160;2023-03-15T04:38:42;101531.94;;;4.91;71.36
66524;BME280;53350;52.210;5.160;2023-03-15T04:41:11;101533.69;;;4.92;71.60
66524;BME280;53350;52.210;5.160;2023-03-15T04:43:37;101536.22;;;4.92;71.35
66524;BME280;53350;52.210;5.160;2023-03-15T04:46:05;101543.84;;;4.90;71.66
66524;BME280;53350;52.210;5.160;2023-03-15T04:48:32;101538.78;;;4.92;71.74
66524;BME280;53350;52.210;5.160;2023-03-15T04:50:58;101547.31;;;4.94;71.47
66524;BME280;53350;52.210;5.160;2023-03-15T04:53:25;101550.75;;;4.94;71.62
66524;BME280;53350;52.210;5.160;2023-03-15T04:55:52;101560.13;;;4.95;71.67
66524;BME280;53350;52.210;5.160;2023-03-15T04:58:18;101549.97;;;4.97;71.87
66524;BME280;53350;52.210;5.160;2023-03-15T05:00:45;101560.19;;;4.97;71.61
66524;BME280;53350;52.210;5.160;2023-03-15T05:03:12;101574.66;;;4.98;71.83
66524;BME280;53350;52.210;5.160;2023-03-15T05:05:39;101576.34;;;4.97;71.62
66524;BME280;53350;52.210;5.160;2023-03-15T05:08:05;101590.75;;;4.95;72.30
66524;BME280;53350;52.210;5.160;2023-03-15T05:10:32;101594.19;;;4.96;72.11
66524;BME280;53350;52.210;5.160;2023-03-15T05:12:59;101595.84;;;4.94;72.29
66524;BME280;53350;52.210;5.160;2023-03-15T05:15:25;101606.91;;;4.93;72.29
66524;BME280;53350;52.210;5.160;2023-03-15T05:17:52;101606.06;;;4.95;72.78
66524;BME280;53350;52.210;5.160;2023-03-15T05:20:20;101615.41;;;4.93;72.98
66524;BME280;53350;52.210;5.160;2023-03-15T05:22:47;101614.56;;;4.93;72.84
66524;BME280;53350;52.210;5.160;2023-03-15T05:25:14;101618.84;;;4.95;72.96
66524;BME280;53350;52.210;5.160;2023-03-15T05:27:40;101629.94;;;4.96;73.21
66524;BME280;53350;52.210;5.160;2023-03-15T05:30:08;101622.28;;;4.96;73.39
66524;BME280;53350;52.210;5.160;2023-03-15T05:32:34;101627.34;;;4.94;73.36
66524;BME280;53350;52.210;5.160;2023-03-15T05:35:06;101626.41;;;4.91;72.72
66524;BME280;53350;52.210;5.160;2023-03-15T05:37:34;101633.09;;;4.85;72.49
66524;BME280;53350;52.210;5.160;2023-03-15T05:40:00;101628.75;;;4.81;72.96
66524;BME280;53350;52.210;5.160;2023-03-15T05:42:27;101631.19;;;4.77;72.94
66524;BME280;53350;52.210;5.160;2023-03-15T05:44:54;101627.72;;;4.75;72.84
66524;BME280;53350;52.210;5.160;2023-03-15T05:47:22;101637.19;;;4.79;73.17
66524;BME280;53350;52.210;5.160;2023-03-15T05:49:48;101635.47;;;4.79;73.14
66524;BME280;53350;52.210;5.160;2023-03-15T05:52:16;101629.59;;;4.82;73.19
66524;BME280;53350;52.210;5.160;2023-03-15T05:54:44;101635.66;;;4.85;72.79
66524;BME280;53350;52.210;5.160;2023-03-15T05:57:10;101639.94;;;4.88;73.13
66524;BME280;53350;52.210;5.160;2023-03-15T05:59:37;101654.53;;;4.92;72.60
66524;BME280;53350;52.210;5.160;2023-03-15T06:02:03;101660.53;;;4.94;72.50
66524;BME280;53350;52.210;5.160;2023-03-15T06:04:30;101648.69;;;4.98;72.49
66524;BME280;53350;52.210;5.160;2023-03-15T06:06:56;101659.00;;;5.02;72.61
66524;BME280;53350;52.210;5.160;2023-03-15T06:09:23;101654.84;;;5.06;72.63
66524;BME280;53350;52.210;5.160;2023-03-15T06:11:50;101661.78;;;5.10;72.72
66524;BME280;53350;52.210;5.160;2023-03-15T06:14:17;101665.28;;;5.15;72.55
66524;BME280;53350;52.210;5.160;2023-03-15T06:16:44;101666.22;;;5.19;72.55
66524;BME280;53350;52.210;5.160;2023-03-15T06:19:10;101675.66;;;5.21;72.40
66524;BME280;53350;52.210;5.160;2023-03-15T06:21:37;101678.25;;;5.23;72.53
66524;BME280;53350;52.210;5.160;2023-03-15T06:24:04;101677.44;;;5.26;72.46
66524;BME280;53350;52.210;5.160;2023-03-15T06:26:31;101676.59;;;5.27;72.55
66524;BME280;53350;52.210;5.160;2023-03-15T06:28:59;101684.28;;;5.27;72.29
66524;BME280;53350;52.210;5.160;2023-03-15T06:31:25;101691.97;;;5.28;72.43
66524;BME280;53350;52.210;5.160;2023-03-15T06:33:52;101697.97;;;5.29;72.20
66524;BME280;53350;52.210;5.160;2023-03-15T06:36:18;101703.06;;;5.29;72.50
66524;BME280;53350;52.210;5.160;2023-03-15T06:38:44;101699.63;;;5.28;72.14
66524;BME280;53350;52.210;5.160;2023-03-15T06:41:11;101713.28;;;5.29;72.22
66524;BME280;53350;52.210;5.160;2023-03-15T06:43:39;101710.78;;;5.30;72.19
66524;BME280;53350;52.210;5.160;2023-03-15T06:46:07;101716.72;;;5.31;72.50
66524;BME280;53350;52.210;5.160;2023-03-15T06:48:33;101726.13;;;5.32;72.48
66524;BME280;53350;52.210;5.160;2023-03-15T06:51:00;101736.41;;;5.35;73.01
66524;BME280;53350;52.210;5.160;2023-03-15T06:53:28;101728.88;;;5.41;72.45
66524;BME280;53350;52.210;5.160;2023-03-15T06:55:55;101739.25;;;5.47;72.77
66524;BME280;53350;52.210;5.160;2023-03-15T06:58:21;101747.97;;;5.55;73.00
66524;BME280;53350;52.210;5.160;2023-03-15T07:00:48;101746.47;;;5.65;73.13
66524;BME280;53350;52.210;5.160;2023-03-15T07:03:16;101750.19;;;5.78;73.37
66524;BME280;53350;52.210;5.160;2023-03-15T07:05:43;101747.06;;;5.91;73.18
66524;BME280;53350;52.210;5.160;2023-03-15T07:08:10;101745.59;;;6.01;72.94
66524;BME280;53350;52.210;5.160;2023-03-15T07:10:37;101752.63;;;6.12;72.64
66524;BME280;53350;52.210;5.160;2023-03-15T07:13:03;101748.47;;;6.18;72.58
66524;BME280;53350;52.210;5.160;2023-03-15T07:15:31;101750.38;;;6.27;72.55
66524;BME280;53350;52.210;5.160;2023-03-15T07:17:57;101753.06;;;6.33;72.41
66524;BME280;53350;52.210;5.160;2023-03-15T07:20:25;101770.25;;;6.39;72.27
66524;BME280;53350;52.210;5.160;2023-03-15T07:22:51;101766.03;;;6.42;71.69
66524;BME280;53350;52.210;5.160;2023-03-15T07:25:18;101770.34;;;6.45;71.99
66524;BME280;53350;52.210;5.160;2023-03-15T07:27:48;101768.66;;;6.46;71.95
66524;BME280;53350;52.210;5.160;2023-03-15T07:30:15;101778.97;;;6.50;71.55
66524;BME280;53350;52.210;5.160;2023-03-15T07:32:42;101776.56;;;6.56;71.99
66524;BME280;53350;52.210;5.160;2023-03-15T07:35:08;101768.16;;;6.64;71.84
66524;BME280;53350;52.210;5.160;2023-03-15T07:37:36;101770.03;;;6.72;71.69
66524;BME280;53350;52.210;5.160;2023-03-15T07:40:03;101774.53;;;6.86;72.17
66524;BME280;53350;52.210;5.160;2023-03-15T07:42:34;101773.91;;;6.99;72.04
66524;BME280;53350;52.210;5.160;2023-03-15T07:45:00;101787.81;;;7.12;71.87
66524;BME280;53350;52.210;5.160;2023-03-15T07:47:26;101789.72;;;7.25;71.26
66524;BME280;53350;52.210;5.160;2023-03-15T07:49:53;101793.38;;;7.40;70.89
66524;BME280;53350;52.210;5.160;2023-03-15T07:52:19;101798.81;;;7.58;70.35
66524;BME280;53350;52.210;5.160;2023-03-15T07:54:47;101807.56;;;7.73;70.29
66524;BME280;53350;52.210;5.160;2023-03-15T07:57:13;101817.09;;;7.81;69.65
66524;BME280;53350;52.210;5.160;2023-03-15T07:59:40;101818.06;;;7.88;68.89
66524;BME280;53350;52.210;5.160;2023-03-15T08:02:08;101820.78;;;8.00;68.47
66524;BME280;53350;52.210;5.160;2023-03-15T08:04:36;101828.69;;;8.14;67.97
66524;BME280;53350;52.210;5.160;2023-03-15T08:07:02;101826.28;;;8.27;67.51
66524;BME280;53350;52.210;5.160;2023-03-15T08:09:28;101826.50;;;8.42;67.35
66524;BME280;53350;52.210;5.160;2023-03-15T08:11:58;101823.22;;;8.52;68.27
66524;BME280;53350;52.210;5.160;2023-03-15T08:14:25;101822.47;;;8.63;66.92
66524;BME280;53350;52.210;5.160;2023-03-15T08:16:51;101827.78;;;8.75;66.71
66524;BME280;53350;52.210;5.160;2023-03-15T08:19:18;101829.63;;;8.88;66.62
66524;BME280;53350;52.210;5.160;2023-03-15T08:21:46;101827.09;;;8.95;66.74
66524;BME280;53350;52.210;5.160;2023-03-15T08:24:12;101840.91;;;9.01;65.58
66524;BME280;53350;52.210;5.160;2023-03-15T08:26:39;101850.31;;;8.99;66.41
66524;BME280;53350;52.210;5.160;2023-03-15T08:29:08;101850.31;;;8.99;65.83
66524;BME280;53350;52.210;5.160;2023-03-15T08:31:35;101849.53;;;9.08;65.57
66524;BME280;53350;52.210;5.160;2023-03-15T08:34:01;101847.03;;;9.14;65.63
66524;BME280;53350;52.210;5.160;2023-03-15T08:36:28;101854.78;;;9.19;65.39
66524;BME280;53350;52.210;5.160;2023-03-15T08:38:56;101866.00;;;9.27;65.46
66524;BME280;53350;52.210;5.160;2023-03-15T08:41:23;101863.50;;;9.36;65.17
66524;BME280;53350;52.210;5.160;2023-03-15T08:43:49;101870.38;;;9.37;64.78
66524;BME280;53350;52.210;5.160;2023-03-15T08:46:17;101873.81;;;9.39;64.15
66524;BME280;53350;52.210;5.160;2023-03-15T08:48:46;101867.81;;;9.36;64.81
66524;BME280;53350;52.210;5.160;2023-03-15T08:51:12;101873.81;;;9.38;63.86
66524;BME280;53350;52.210;5.160;2023-03-15T08:53:38;101874.63;;;9.35;63.72
66524;BME280;53350;52.210;5.160;2023-03-15T08:56:05;101864.34;;;9.37;63.93
66524;BME280;53350;52.210;5.160;2023-03-15T08:58:32;101867.00;;;9.42;63.67
66524;BME280;53350;52.210;5.160;2023-03-15T09:00:58;101863.63;;;9.47;62.52
66524;BME280;53350;52.210;5.160;2023-03-15T09:03:26;101861.94;;;9.54;62.50
66524;BME280;53350;52.210;5.160;2023-03-15T09:05:55;101873.13;;;9.57;62.50
66524;BME280;53350;52.210;5.160;2023-03-15T09:08:21;101864.63;;;9.65;61.74
66524;BME280;53350;52.210;5.160;2023-03-15T09:10:52;101874.13;;;9.72;61.12
66524;BME280;53350;52.210;5.160;2023-03-15T09:13:19;101871.56;;;9.75;61.49
66524;BME280;53350;52.210;5.160;2023-03-15T09:15:48;101868.16;;;9.78;60.78
66524;BME280;53350;52.210;5.160;2023-03-15T09:18:14;101865.59;;;9.78;60.58
66524;BME280;53350;52.210;5.160;2023-03-15T09:20:42;101869.03;;;9.80;60.34
66524;BME280;53350;52.210;5.160;2023-03-15T09:23:09;101863.88;;;9.83;59.89
66524;BME280;53350;52.210;5.160;2023-03-15T09:25:36;101862.25;;;9.94;58.72
66524;BME280;53350;52.210;5.160;2023-03-15T09:28:02;101860.59;;;10.02;58.11
66524;BME280;53350;52.210;5.160;2023-03-15T09:30:29;101870.09;;;10.08;57.25
66524;BME280;53350;52.210;5.160;2023-03-15T09:32:55;101864.09;;;10.14;56.21
66524;BME280;53350;52.210;5.160;2023-03-15T09:35:22;101876.09;;;10.08;54.82
66524;BME280;53350;52.210;5.160;2023-03-15T09:37:50;101871.75;;;10.01;54.78
66524;BME280;53350;52.210;5.160;2023-03-15T09:40:19;101874.31;;;10.03;55.09
66524;BME280;53350;52.210;5.160;2023-03-15T09:42:56;101870.91;;;10.05;54.51
66524;BME280;53350;52.210;5.160;2023-03-15T09:45:28;101870.97;;;10.15;55.18
66524;BME280;53350;52.210;5.160;2023-03-15T09:48:01;101864.13;;;10.18;55.19
66524;BME280;53350;52.210;5.160;2023-03-15T09:50:32;101873.63;;;10.27;53.84
66524;BME280;53350;52.210;5.160;2023-03-15T09:53:03;101867.56;;;10.22;53.07
66524;BME280;53350;52.210;5.160;2023-03-15T09:55:33;101868.38;;;10.15;52.27
66524;BME280;53350;52.210;5.160;2023-03-15T09:58:02;101873.50;;;10.08;52.46
66524;BME280;53350;52.210;5.160;2023-03-15T10:00:34;101876.94;;;10.10;53.26
66524;BME280;53350;52.210;5.160;2023-03-15T10:03:02;101870.03;;;10.06;53.96
66524;BME280;53350;52.210;5.160;2023-03-15T10:05:36;101872.66;;;10.09;54.48
66524;BME280;53350;52.210;5.160;2023-03-15T10:08:09;101873.50;;;10.07;53.69
66524;BME280;53350;52.210;5.160;2023-03-15T10:10:39;101870.91;;;10.05;53.48
66524;BME280;53350;52.210;5.160;2023-03-15T10:13:31;101869.22;;;10.09;53.84
66524;BME280;53350;52.210;5.160;2023-03-15T10:16:11;101871.81;;;10.14;53.65
66524;BME280;53350;52.210;5.160;2023-03-15T10:18:48;101856.34;;;10.12;53.40
66524;BME280;53350;52.210;5.160;2023-03-15T10:21:28;101859.78;;;10.09;53.32
66524;BME280;53350;52.210;5.160;2023-03-15T10:24:01;101862.41;;;10.19;52.58
66524;BME280;53350;52.210;5.160;2023-03-15T10:26:31;101866.72;;;10.21;51.56
66524;BME280;53350;52.210;5.160;2023-03-15T10:29:01;101872.78;;;10.31;50.28
66524;BME280;53350;52.210;5.160;2023-03-15T10:31:32;101868.50;;;10.30;50.13
66524;BME280;53350;52.210;5.160;2023-03-15T10:34:00;101867.66;;;10.33;50.34
66524;BME280;53350;52.210;5.160;2023-03-15T10:36:26;101881.41;;;10.36;50.83
66524;BME280;53350;52.210;5.160;2023-03-15T10:38:53;101884.03;;;10.41;49.80
66524;BME280;53350;52.210;5.160;2023-03-15T10:41:29;101886.59;;;10.39;49.55
66524;BME280;53350;52.210;5.160;2023-03-15T10:44:02;101896.03;;;10.36;49.53
66524;BME280;53350;52.210;5.160;2023-03-15T10:46:29;101908.91;;;10.36;49.28
66524;BME280;53350;52.210;5.160;2023-03-15T10:48:57;101909.72;;;10.33;50.03
66524;BME280;53350;52.210;5.160;2023-03-15T10:51:26;101910.59;;;10.38;49.19
66524;BME280;53350;52.210;5.160;2023-03-15T10:53:56;101914.06;;;10.34;49.52
66524;BME280;53350;52.210;5.160;2023-03-15T10:56:24;101921.78;;;10.39;48.58
66524;BME280;53350;52.210;5.160;2023-03-15T10:58:54;101923.53;;;10.40;47.97
66524;BME280;53350;52.210;5.160;2023-03-15T11:01:26;101918.38;;;10.40;47.45
66524;BME280;53350;52.210;5.160;2023-03-15T11:04:01;101920.94;;;10.40;48.40
66524;BME280;53350;52.210;5.160;2023-03-15T11:06:39;101925.25;;;10.44;48.98
66524;BME280;53350;52.210;5.160;2023-03-15T11:09:08;101939.00;;;10.41;49.87
66524;BME280;53350;52.210;5.160;2023-03-15T11:11:49;101942.41;;;10.42;49.67
66524;BME280;53350;52.210;5.160;2023-03-15T11:14:18;101942.44;;;10.50;49.90
66524;BME280;53350;52.210;5.160;2023-03-15T11:16:45;101945.94;;;10.56;51.01
66524;BME280;53350;52.210;5.160;2023-03-15T11:19:15;101945.94;;;10.56;49.56
66524;BME280;53350;52.210;5.160;2023-03-15T11:21:44;101939.94;;;10.59;48.91
66524;BME280;53350;52.210;5.160;2023-03-15T11:24:19;101947.69;;;10.60;47.84
66524;BME280;53350;52.210;5.160;2023-03-15T11:26:48;101937.38;;;10.62;48.40
66524;BME280;53350;52.210;5.160;2023-03-15T11:29:21;101934.81;;;10.67;47.89
66524;BME280;53350;52.210;5.160;2023-03-15T11:31:48;101936.56;;;10.69;47.66
66524;BME280;53350;52.210;5.160;2023-03-15T11:34:23;101936.56;;;10.75;47.43
66524;BME280;53350;52.210;5.160;2023-03-15T11:36:53;101928.00;;;10.75;45.63
66524;BME280;53350;52.210;5.160;2023-03-15T11:39:26;101929.66;;;10.68;46.14
66524;BME280;53350;52.210;5.160;2023-03-15T11:42:01;101927.94;;;10.67;46.23
66524;BME280;53350;52.210;5.160;2023-03-15T11:44:38;101933.97;;;10.68;47.17
66524;BME280;53350;52.210;5.160;2023-03-15T11:47:10;101925.38;;;10.69;47.14
66524;BME280;53350;52.210;5.160;2023-03-15T11:49:42;101927.13;;;10.76;45.62
66524;BME280;53350;52.210;5.160;2023-03-15T11:52:11;101931.41;;;10.69;45.91
66524;BME280;53350;52.210;5.160;2023-03-15T11:54:38;101924.50;;;10.67;46.00
66524;BME280;53350;52.210;5.160;2023-03-15T11:57:06;101925.34;;;10.64;47.03
66524;BME280;53350;52.210;5.160;2023-03-15T11:59:36;101927.94;;;10.67;46.30
66524;BME280;53350;52.210;5.160;2023-03-15T12:02:34;101917.59;;;10.59;45.15
66524;BME280;53350;52.210;5.160;2023-03-15T12:05:04;101926.16;;;10.54;45.36
66524;BME280;53350;52.210;5.160;2023-03-15T12:07:56;101931.31;;;10.57;46.69
66524;BME280;53350;52.210;5.160;2023-03-15T12:10:32;101927.09;;;10.71;44.59
66524;BME280;53350;52.210;5.160;2023-03-15T12:13:06;101923.63;;;10.61;45.33
66524;BME280;53350;52.210;5.160;2023-03-15T12:15:46;101940.00;;;10.71;45.85
66524;BME280;53350;52.210;5.160;2023-03-15T12:18:15;101945.22;;;10.81;45.34
66524;BME280;53350;52.210;5.160;2023-03-15T12:20:51;101952.06;;;10.85;45.33
66524;BME280;53350;52.210;5.160;2023-03-15T12:23:34;101942.66;;;10.88;45.12
66524;BME280;53350;52.210;5.160;2023-03-15T12:26:06;101937.50;;;10.91;44.06
66524;BME280;53350;52.210;5.160;2023-03-15T12:28:36;101940.09;;;10.91;42.51
66524;BME280;53350;52.210;5.160;2023-03-15T12:31:05;101942.66;;;10.91;43.85
66524;BME280;53350;52.210;5.160;2023-03-15T12:33:43;101936.66;;;10.89;42.80
66524;BME280;53350;52.210;5.160;2023-03-15T12:36:18;101937.50;;;10.91;42.93
66524;BME280;53350;52.210;5.160;2023-03-15T12:38:58;101932.34;;;10.88;42.97
66524;BME280;53350;52.210;5.160;2023-03-15T12:41:38;101933.19;;;10.84;42.77
66524;BME280;53350;52.210;5.160;2023-03-15T12:44:24;101943.50;;;10.87;42.38
66524;BME280;53350;52.210;5.160;2023-03-15T12:46:57;101940.06;;;10.87;41.62
66524;BME280;53350;52.210;5.160;2023-03-15T12:49:30;101939.22;;;10.91;42.15
66524;BME280;53350;52.210;5.160;2023-03-15T12:51:58;101932.38;;;10.98;41.41
66524;BME280;53350;52.210;5.160;2023-03-15T12:54:30;101925.53;;;11.03;41.34
66524;BME280;53350;52.210;5.160;2023-03-15T12:57:00;101937.50;;;10.96;41.66
66524;BME280;53350;52.210;5.160;2023-03-15T12:59:31;101938.41;;;10.98;41.48
66524;BME280;53350;52.210;5.160;2023-03-15T13:02:01;101928.94;;;11.05;41.72
66524;BME280;53350;52.210;5.160;2023-03-15T13:04:28;101924.69;;;11.07;42.42
66524;BME280;53350;52.210;5.160;2023-03-15T13:07:20;101929.00;;;11.11;42.46